sensor_id;sensor_type;location;lat;lon;timestamp;pressure;altitude;pressure_sealevel;temperature;humidity
37852;BME280;23691;52.486;4.650;2023-05-24T00:01:06;102576.13;;;11.99;61.18
37852;BME280;23691;52.486;4.650;2023-05-24T00:03:32;102569.66;;;12.01;61.32
37852;BME280;23691;52.486;4.650;2023-05-24T00:05:59;102572.16;;;12.03;61.61
37852;BME280;23691;52.486;4.650;2023-05-24T00:08:25;102582.66;;;12.06;61.69
37852;BME280;23691;52.486;4.650;2023-05-24T00:10:51;102578.25;;;12.05;61.53
37852;BME280;23691;52.486;4.650;2023-05-24T00:13:16;102580.81;;;12.07;62.10
37852;BME280;23691;52.486;4.650;2023-05-24T00:15:42;102588.88;;;12.07;61.93
37852;BME280;23691;52.486;4.650;2023-05-24T00:18:07;102579.97;;;12.06;61.93
37852;BME280;23691;52.486;4.650;2023-05-24T00:20:33;102573.75;;;12.06;62.25
37852;BME280;23691;52.486;4.650;2023-05-24T00:22:58;102573.63;;;12.07;62.46
37852;BME280;23691;52.486;4.650;2023-05-24T00:25:23;102568.13;;;12.09;62.18
37852;BME280;23691;52.486;4.650;2023-05-24T00:27:49;102565.91;;;12.14;62.65
37852;BME280;23691;52.486;4.650;2023-05-24T00:30:15;102575.63;;;12.15;62.62
37852;BME280;23691;52.486;4.650;2023-05-24T00:32:40;102570.00;;;12.18;62.74
37852;BME280;23691;52.486;4.650;2023-05-24T00:35:06;102575.53;;;12.16;62.83
37852;BME280;23691;52.486;4.650;2023-05-24T00:37:31;102571.28;;;12.14;62.93
37852;BME280;23691;52.486;4.650;2023-05-24T00:39:57;102575.75;;;12.13;63.22
37852;BME280;23691;52.486;4.650;2023-05-24T00:42:22;102564.91;;;12.15;63.09
37852;BME280;23691;52.486;4.650;2023-05-24T00:44:47;102556.59;;;12.18;63.13
37852;BME280;23691;52.486;4.650;2023-05-24T00:47:14;102556.19;;;12.22;63.05
37852;BME280;23691;52.486;4.650;2023-05-24T00:49:42;102566.34;;;12.19;63.28
37852;BME280;23691;52.486;4.650;2023-05-24T00:52:08;102553.06;;;12.17;63.46
37852;BME280;23691;52.486;4.650;2023-05-24T00:54:34;102550.97;;;12.21;63.42
37852;BME280;23691;52.486;4.650;2023-05-24T00:57:00;102565.34;;;12.20;63.68
37852;BME280;23691;52.486;4.650;2023-05-24T00:59:26;102562.81;;;12.18;63.94
37852;BME280;23691;52.486;4.650;2023-05-24T01:01:54;102567.47;;;12.16;63.84
37852;BME280;23691;52.486;4.650;2023-05-24T01:04:20;102569.44;;;12.14;64.11
37852;BME280;23691;52.486;4.650;2023-05-24T01:06:57;102564.63;;;12.18;64.08
37852;BME280;23691;52.486;4.650;2023-05-24T01:12:10;102568.03;;;12.20;63.88
37852;BME280;23691;52.486;4.650;2023-05-24T01:14:54;102566.34;;;12.19;64.08
37852;BME280;23691;52.486;4.650;2023-05-24T01:17:27;102555.28;;;12.12;64.27
37852;BME280;23691;52.486;4.650;2023-05-24T01:20:01;102557.78;;;12.04;64.65
37852;BME280;23691;52.486;4.650;2023-05-24T01:25:06;102558.75;;;12.03;64.84
37852;BME280;23691;52.486;4.650;2023-05-24T01:27:36;102553.53;;;12.01;65.02
37852;BME280;23691;52.486;4.650;2023-05-24T01:30:03;102546.78;;;12.07;65.00
37852;BME280;23691;52.486;4.650;2023-05-24T01:32:29;102549.47;;;12.07;64.93
37852;BME280;23691;52.486;4.650;2023-05-24T01:34:55;102544.94;;;12.08;64.89
37852;BME280;23691;52.486;4.650;2023-05-24T01:37:21;102539.75;;;12.06;64.83
37852;BME280;23691;52.486;4.650;2023-05-24T01:39:47;102535.34;;;12.05;64.80
37852;BME280;23691;52.486;4.650;2023-05-24T01:47:51;102537.91;;;12.07;65.04
37852;BME280;23691;52.486;4.650;2023-05-24T01:50:26;102532.53;;;12.07;64.98
37852;BME280;23691;52.486;4.650;2023-05-24T01:52:54;102526.31;;;12.06;64.89
37852;BME280;23691;52.486;4.650;2023-05-24T01:55:24;102525.72;;;12.02;64.92
37852;BME280;23691;52.486;4.650;2023-05-24T01:57:53;102532.22;;;12.00;64.79
37852;BME280;23691;52.486;4.650;2023-05-24T02:00:22;102530.38;;;12.00;65.10
37852;BME280;23691;52.486;4.650;2023-05-24T02:02:47;102528.09;;;11.96;65.29
37852;BME280;23691;52.486;4.650;2023-05-24T02:05:13;102529.19;;;11.93;65.11
37852;BME280;23691;52.486;4.650;2023-05-24T02:07:38;102525.81;;;11.91;65.16
37852;BME280;23691;52.486;4.650;2023-05-24T02:10:06;102522.53;;;11.88;65.28
37852;BME280;23691;52.486;4.650;2023-05-24T02:12:32;102521.69;;;11.87;65.29
37852;BME280;23691;52.486;4.650;2023-05-24T02:14:57;102524.09;;;11.90;65.45
37852;BME280;23691;52.486;4.650;2023-05-24T02:17:22;102517.91;;;11.90;65.24
37852;BME280;23691;52.486;4.650;2023-05-24T02:19:51;102524.38;;;11.87;65.43
37852;BME280;23691;52.486;4.650;2023-05-24T02:22:16;102524.47;;;11.86;65.62
37852;BME280;23691;52.486;4.650;2023-05-24T02:24:41;102525.09;;;11.89;65.50
37852;BME280;23691;52.486;4.650;2023-05-24T02:27:07;102524.94;;;11.91;65.31
37852;BME280;23691;52.486;4.650;2023-05-24T02:29:33;102530.19;;;11.92;65.35
37852;BME280;23691;52.486;4.650;2023-05-24T02:31:58;102521.53;;;11.89;65.36
37852;BME280;23691;52.486;4.650;2023-05-24T02:34:24;102528.91;;;11.87;65.37
37852;BME280;23691;52.486;4.650;2023-05-24T02:36:50;102522.19;;;11.81;65.50
37852;BME280;23691;52.486;4.650;2023-05-24T02:39:16;102518.81;;;11.79;65.84
37852;BME280;23691;52.486;4.650;2023-05-24T02:41:41;102525.84;;;11.80;65.72
37852;BME280;23691;52.486;4.650;2023-05-24T02:44:07;102533.16;;;11.78;65.88
37852;BME280;23691;52.486;4.650;2023-05-24T02:46:32;102525.28;;;11.76;66.02
37852;BME280;23691;52.486;4.650;2023-05-24T02:48:58;102528.66;;;11.78;66.02
37852;BME280;23691;52.486;4.650;2023-05-24T02:51:23;102520.50;;;11.80;65.93
37852;BME280;23691;52.486;4.650;2023-05-24T02:53:49;102519.66;;;11.79;65.83
37852;BME280;23691;52.486;4.650;2023-05-24T02:56:15;102514.13;;;11.81;65.82
37852;BME280;23691;52.486;4.650;2023-05-24T02:58:44;102507.81;;;11.82;65.88
37852;BME280;23691;52.486;4.650;2023-05-24T03:01:11;102513.28;;;11.80;65.97
37852;BME280;23691;52.486;4.650;2023-05-24T03:03:38;102512.72;;;11.77;65.97
37852;BME280;23691;52.486;4.650;2023-05-24T03:06:06;102515.25;;;11.78;65.97
37852;BME280;23691;52.486;4.650;2023-05-24T03:08:33;102503.81;;;11.76;66.09
37852;BME280;23691;52.486;4.650;2023-05-24T03:10:58;102506.50;;;11.76;66.09
37852;BME280;23691;52.486;4.650;2023-05-24T03:13:23;102503.69;;;11.78;66.02
37852;BME280;23691;52.486;4.650;2023-05-24T03:15:49;102507.09;;;11.80;66.17
37852;BME280;23691;52.486;4.650;2023-05-24T03:18:14;102515.41;;;11.77;65.92
37852;BME280;23691;52.486;4.650;2023-05-24T03:20:40;102510.28;;;11.74;66.00
37852;BME280;23691;52.486;4.650;2023-05-24T03:23:05;102510.28;;;11.74;66.02
37852;BME280;23691;52.486;4.650;2023-05-24T03:25:31;102512.09;;;11.73;66.32
37852;BME280;23691;52.486;4.650;2023-05-24T03:27:59;102514.78;;;11.73;66.35
37852;BME280;23691;52.486;4.650;2023-05-24T03:30:26;102517.84;;;11.69;66.48
37852;BME280;23691;52.486;4.650;2023-05-24T03:32:55;102521.81;;;11.65;66.67
37852;BME280;23691;52.486;4.650;2023-05-24T03:35:20;102515.34;;;11.67;66.49
37852;BME280;23691;52.486;4.650;2023-05-24T03:37:46;102523.81;;;11.72;66.59
37852;BME280;23691;52.486;4.650;2023-05-24T03:40:11;102525.41;;;11.75;66.58
37852;BME280;23691;52.486;4.650;2023-05-24T03:42:37;102533.44;;;11.75;66.71
37852;BME280;23691;52.486;4.650;2023-05-24T03:45:08;102535.59;;;11.81;66.67
37852;BME280;23691;52.486;4.650;2023-05-24T03:47:34;102536.31;;;11.83;66.68
37852;BME280;23691;52.486;4.650;2023-05-24T03:50:02;102539.84;;;11.83;66.44
37852;BME280;23691;52.486;4.650;2023-05-24T03:52:28;102536.19;;;11.85;66.52
37852;BME280;23691;52.486;4.650;2023-05-24T03:54:53;102541.03;;;11.91;66.53
37852;BME280;23691;52.486;4.650;2023-05-24T03:57:19;102531.63;;;11.96;66.38
37852;BME280;23691;52.486;4.650;2023-05-24T03:59:44;102536.56;;;12.01;66.35
37852;BME280;23691;52.486;4.650;2023-05-24T04:02:12;102537.19;;;12.05;66.42
37852;BME280;23691;52.486;4.650;2023-05-24T04:04:37;102540.31;;;12.10;66.23
37852;BME280;23691;52.486;4.650;2023-05-24T04:07:03;102534.81;;;12.11;66.63
37852;BME280;23691;52.486;4.650;2023-05-24T04:09:28;102524.94;;;12.12;66.60
37852;BME280;23691;52.486;4.650;2023-05-24T04:11:54;102527.47;;;12.13;66.44
37852;BME280;23691;52.486;4.650;2023-05-24T04:14:19;102525.38;;;12.17;66.34
37852;BME280;23691;52.486;4.650;2023-05-24T04:16:46;102529.50;;;12.21;66.48
37852;BME280;23691;52.486;4.650;2023-05-24T04:19:14;102528.38;;;12.23;66.34
37852;BME280;23691;52.486;4.650;2023-05-24T04:21:39;102523.88;;;12.24;66.44
37852;BME280;23691;52.486;4.650;2023-05-24T04:24:05;102524.31;;;12.29;66.39
37852;BME280;23691;52.486;4.650;2023-05-24T04:26:33;102534.75;;;12.32;66.33
37852;BME280;23691;52.486;4.650;2023-05-24T04:28:59;102531.13;;;12.33;66.41
37852;BME280;23691;52.486;4.650;2023-05-24T04:31:24;102529.72;;;12.39;66.43
37852;BME280;23691;52.486;4.650;2023-05-24T04:33:53;102527.47;;;12.44;66.31
37852;BME280;23691;52.486;4.650;2023-05-24T04:36:19;102526.34;;;12.46;66.42
37852;BME280;23691;52.486;4.650;2023-05-24T04:38:47;102516.91;;;12.52;66.20
37852;BME280;23691;52.486;4.650;2023-05-24T04:41:12;102522.00;;;12.55;66.23
37852;BME280;23691;52.486;4.650;2023-05-24T04:43:37;102517.72;;;12.53;66.48
37852;BME280;23691;52.486;4.650;2023-05-24T04:46:03;102517.47;;;12.56;66.41
37852;BME280;23691;52.486;4.650;2023-05-24T04:48:28;102513.28;;;12.63;66.35
37852;BME280;23691;52.486;4.650;2023-05-24T04:50:55;102508.34;;;12.68;66.38
37852;BME280;23691;52.486;4.650;2023-05-24T04:53:21;102504.66;;;12.79;66.24
37852;BME280;23691;52.486;4.650;2023-05-24T04:55:47;102507.22;;;12.80;66.37
37852;BME280;23691;52.486;4.650;2023-05-24T04:58:14;102508.78;;;12.83;66.41
37852;BME280;23691;52.486;4.650;2023-05-24T05:00:40;102517.13;;;12.89;66.37
37852;BME280;23691;52.486;4.650;2023-05-24T05:03:06;102515.56;;;12.97;66.00
37852;BME280;23691;52.486;4.650;2023-05-24T05:05:31;102513.59;;;12.99;66.03
37852;BME280;23691;52.486;4.650;2023-05-24T05:07:57;102523.09;;;13.03;65.96
37852;BME280;23691;52.486;4.650;2023-05-24T05:10:22;102518.28;;;13.06;66.16
37852;BME280;23691;52.486;4.650;2023-05-24T05:12:48;102524.78;;;13.14;65.98
37852;BME280;23691;52.486;4.650;2023-05-24T05:15:13;102525.22;;;13.19;66.07
37852;BME280;23691;52.486;4.650;2023-05-24T05:17:39;102528.63;;;13.21;66.15
37852;BME280;23691;52.486;4.650;2023-05-24T05:20:05;102529.75;;;13.18;66.12
37852;BME280;23691;52.486;4.650;2023-05-24T05:22:31;102523.81;;;13.24;65.96
37852;BME280;23691;52.486;4.650;2023-05-24T05:24:56;102525.13;;;13.40;65.64
37852;BME280;23691;52.486;4.650;2023-05-24T05:27:22;102527.22;;;13.46;65.57
37852;BME280;23691;52.486;4.650;2023-05-24T05:29:47;102529.47;;;13.60;65.28
37852;BME280;23691;52.486;4.650;2023-05-24T05:32:12;102536.28;;;13.64;65.20
37852;BME280;23691;52.486;4.650;2023-05-24T05:34:41;102533.59;;;13.64;65.09
37852;BME280;23691;52.486;4.650;2023-05-24T05:37:06;102526.75;;;13.80;64.77
37852;BME280;23691;52.486;4.650;2023-05-24T05:39:32;102541.75;;;13.92;64.62
37852;BME280;23691;52.486;4.650;2023-05-24T05:41:57;102538.06;;;13.93;64.43
37852;BME280;23691;52.486;4.650;2023-05-24T05:44:23;102535.22;;;13.94;64.41
37852;BME280;23691;52.486;4.650;2023-05-24T05:46:48;102540.69;;;14.12;64.03
37852;BME280;23691;52.486;4.650;2023-05-24T05:49:14;102535.72;;;14.17;63.83
37852;BME280;23691;52.486;4.650;2023-05-24T05:51:41;102527.63;;;14.17;63.52
37852;BME280;23691;52.486;4.650;2023-05-24T05:54:07;102539.09;;;14.20;63.29
37852;BME280;23691;52.486;4.650;2023-05-24T05:56:40;102532.84;;;14.29;63.19
37852;BME280;23691;52.486;4.650;2023-05-24T05:59:13;102541.28;;;14.44;62.63
37852;BME280;23691;52.486;4.650;2023-05-24T06:01:40;102538.06;;;14.40;62.46
37852;BME280;23691;52.486;4.650;2023-05-24T06:04:06;102540.97;;;14.47;62.18
37852;BME280;23691;52.486;4.650;2023-05-24T06:06:31;102543.28;;;14.42;62.29
37852;BME280;23691;52.486;4.650;2023-05-24T06:08:58;102544.25;;;14.50;61.73
37852;BME280;23691;52.486;4.650;2023-05-24T06:11:25;102542.06;;;14.64;61.68
37852;BME280;23691;52.486;4.650;2023-05-24T06:13:53;102546.63;;;14.63;61.28
37852;BME280;23691;52.486;4.650;2023-05-24T06:16:19;102552.09;;;14.71;61.21
37852;BME280;23691;52.486;4.650;2023-05-24T06:18:45;102535.34;;;14.77;60.90
37852;BME280;23691;52.486;4.650;2023-05-24T06:21:12;102541.13;;;14.82;60.81
37852;BME280;23691;52.486;4.650;2023-05-24T06:23:38;102537.66;;;14.90;60.30
37852;BME280;23691;52.486;4.650;2023-05-24T06:26:06;102541.38;;;14.89;60.53
37852;BME280;23691;52.486;4.650;2023-05-24T06:28:35;102536.50;;;14.75;60.91
37852;BME280;23691;52.486;4.650;2023-05-24T06:31:04;102537.03;;;14.78;60.28
37852;BME280;23691;52.486;4.650;2023-05-24T06:33:30;102536.81;;;14.90;59.87
37852;BME280;23691;52.486;4.650;2023-05-24T06:35:56;102534.38;;;14.96;59.90
37852;BME280;23691;52.486;4.650;2023-05-24T06:38:22;102540.22;;;15.10;59.55
37852;BME280;23691;52.486;4.650;2023-05-24T06:40:47;102528.28;;;15.30;58.96
37852;BME280;23691;52.486;4.650;2023-05-24T06:43:13;102533.13;;;15.44;58.46
37852;BME280;23691;52.486;4.650;2023-05-24T06:45:38;102546.75;;;15.43;58.38
37852;BME280;23691;52.486;4.650;2023-05-24T06:48:04;102533.22;;;15.35;58.28
37852;BME280;23691;52.486;4.650;2023-05-24T06:50:29;102538.00;;;15.41;58.17
37852;BME280;23691;52.486;4.650;2023-05-24T06:52:55;102535.88;;;15.53;58.27
37852;BME280;23691;52.486;4.650;2023-05-24T06:55:20;102536.50;;;15.64;57.92
37852;BME280;23691;52.486;4.650;2023-05-24T06:57:46;102545.38;;;15.75;57.38
37852;BME280;23691;52.486;4.650;2023-05-24T07:00:11;102543.03;;;15.80;57.35
37852;BME280;23691;52.486;4.650;2023-05-24T07:02:40;102545.75;;;15.80;56.97
37852;BME280;23691;52.486;4.650;2023-05-24T07:05:06;102544.75;;;15.81;57.03
37852;BME280;23691;52.486;4.650;2023-05-24T07:07:42;102556.72;;;15.78;56.47
37852;BME280;23691;52.486;4.650;2023-05-24T07:10:08;102554.06;;;15.86;56.38
37852;BME280;23691;52.486;4.650;2023-05-24T07:12:35;102556.72;;;16.04;55.98
37852;BME280;23691;52.486;4.650;2023-05-24T07:15:01;102556.22;;;16.09;55.81
37852;BME280;23691;52.486;4.650;2023-05-24T07:17:26;102557.94;;;16.10;55.73
37852;BME280;23691;52.486;4.650;2023-05-24T07:19:51;102563.88;;;16.14;55.72
37852;BME280;23691;52.486;4.650;2023-05-24T07:22:17;102554.66;;;16.24;55.51
37852;BME280;23691;52.486;4.650;2023-05-24T07:24:42;102553.31;;;16.28;55.11
37852;BME280;23691;52.486;4.650;2023-05-24T07:27:08;102568.81;;;16.26;55.19
37852;BME280;23691;52.486;4.650;2023-05-24T07:29:33;102569.72;;;16.09;55.39
37852;BME280;23691;52.486;4.650;2023-05-24T07:31:59;102569.47;;;15.94;55.21
37852;BME280;23691;52.486;4.650;2023-05-24T07:34:25;102567.50;;;16.04;55.28
37852;BME280;23691;52.486;4.650;2023-05-24T07:36:52;102566.88;;;16.10;55.11
37852;BME280;23691;52.486;4.650;2023-05-24T07:39:17;102567.00;;;16.01;55.31
37852;BME280;23691;52.486;4.650;2023-05-24T07:41:43;102565.22;;;15.92;55.27
37852;BME280;23691;52.486;4.650;2023-05-24T07:44:12;102554.69;;;16.06;55.10
37852;BME280;23691;52.486;4.650;2023-05-24T07:46:37;102558.34;;;16.23;54.91
37852;BME280;23691;52.486;4.650;2023-05-24T07:49:02;102551.41;;;16.47;54.37
37852;BME280;23691;52.486;4.650;2023-05-24T07:51:28;102553.63;;;16.60;54.21
37852;BME280;23691;52.486;4.650;2023-05-24T07:53:53;102553.41;;;16.79;54.04
37852;BME280;23691;52.486;4.650;2023-05-24T07:56:19;102552.63;;;17.03;53.56
37852;BME280;23691;52.486;4.650;2023-05-24T07:58:44;102555.34;;;17.20;53.08
37852;BME280;23691;52.486;4.650;2023-05-24T08:01:11;102551.13;;;17.25;52.73
37852;BME280;23691;52.486;4.650;2023-05-24T08:03:37;102551.31;;;17.15;53.03
37852;BME280;23691;52.486;4.650;2023-05-24T08:06:03;102551.41;;;16.98;53.43
37852;BME280;23691;52.486;4.650;2023-05-24T08:08:29;102553.81;;;17.01;53.21
37852;BME280;23691;52.486;4.650;2023-05-24T08:10:54;102544.88;;;17.08;52.95
37852;BME280;23691;52.486;4.650;2023-05-24T08:13:20;102550.44;;;17.15;53.12
37852;BME280;23691;52.486;4.650;2023-05-24T08:15:48;102549.59;;;17.23;52.78
37852;BME280;23691;52.486;4.650;2023-05-24T08:18:14;102557.75;;;17.39;52.66
37852;BME280;23691;52.486;4.650;2023-05-24T08:20:39;102554.88;;;17.49;52.30
37852;BME280;23691;52.486;4.650;2023-05-24T08:23:05;102549.78;;;17.54;51.97
37852;BME280;23691;52.486;4.650;2023-05-24T08:25:30;102552.34;;;17.55;51.75
37852;BME280;23691;52.486;4.650;2023-05-24T08:27:55;102550.81;;;17.61;51.56
37852;BME280;23691;52.486;4.650;2023-05-24T08:30:21;102555.53;;;17.75;51.52
37852;BME280;23691;52.486;4.650;2023-05-24T08:32:47;102562.50;;;17.86;51.44
37852;BME280;23691;52.486;4.650;2023-05-24T08:35:12;102563.69;;;17.84;51.44
37852;BME280;23691;52.486;4.650;2023-05-24T08:37:38;102563.84;;;17.90;51.31
37852;BME280;23691;52.486;4.650;2023-05-24T08:40:03;102563.00;;;17.98;51.18
37852;BME280;23691;52.486;4.650;2023-05-24T08:42:29;102564.03;;;17.97;50.83
37852;BME280;23691;52.486;4.650;2023-05-24T08:45:03;102563.16;;;18.05;50.82
37852;BME280;23691;52.486;4.650;2023-05-24T08:47:30;102570.78;;;17.93;50.66
37852;BME280;23691;52.486;4.650;2023-05-24T08:49:56;102562.81;;;18.08;50.36
37852;BME280;23691;52.486;4.650;2023-05-24T08:52:22;102558.56;;;18.21;50.63
37852;BME280;23691;52.486;4.650;2023-05-24T08:54:48;102559.41;;;18.22;50.43
37852;BME280;23691;52.486;4.650;2023-05-24T08:57:14;102567.66;;;18.37;50.16
37852;BME280;23691;52.486;4.650;2023-05-24T08:59:41;102551.88;;;18.40;49.98
37852;BME280;23691;52.486;4.650;2023-05-24T09:02:08;102551.19;;;18.38;50.11
37852;BME280;23691;52.486;4.650;2023-05-24T09:04:38;102560.97;;;18.56;50.02
37852;BME280;23691;52.486;4.650;2023-05-24T09:07:05;102559.09;;;18.56;49.64
37852;BME280;23691;52.486;4.650;2023-05-24T09:09:33;102562.25;;;18.20;50.24
37852;BME280;23691;52.486;4.650;2023-05-24T09:12:01;102567.19;;;18.17;50.00
37852;BME280;23691;52.486;4.650;2023-05-24T09:14:28;102553.69;;;18.00;49.81
37852;BME280;23691;52.486;4.650;2023-05-24T09:16:55;102551.63;;;18.11;49.77
37852;BME280;23691;52.486;4.650;2023-05-24T09:19:20;102554.31;;;18.19;49.64
37852;BME280;23691;52.486;4.650;2023-05-24T09:21:48;102554.97;;;18.29;49.48
37852;BME280;23691;52.486;4.650;2023-05-24T09:24:14;102555.09;;;18.36;49.55
37852;BME280;23691;52.486;4.650;2023-05-24T09:26:40;102549.00;;;18.42;49.66
37852;BME280;23691;52.486;4.650;2023-05-24T09:29:06;102553.38;;;18.51;49.43
37852;BME280;23691;52.486;4.650;2023-05-24T09:31:33;102552.88;;;18.48;49.08
37852;BME280;23691;52.486;4.650;2023-05-24T09:33:59;102556.56;;;18.55;48.97
37852;BME280;23691;52.486;4.650;2023-05-24T09:36:26;102554.16;;;18.68;48.54
37852;BME280;23691;52.486;4.650;2023-05-24T09:39:07;102547.16;;;18.82;48.45
37852;BME280;23691;52.486;4.650;2023-05-24T09:41:36;102556.66;;;18.78;48.28
37852;BME280;23691;52.486;4.650;2023-05-24T09:44:02;102545.56;;;18.87;48.36
37852;BME280;23691;52.486;4.650;2023-05-24T09:46:28;102542.31;;;19.00;48.25
37852;BME280;23691;52.486;4.650;2023-05-24T09:49:00;102546.47;;;19.11;47.98
37852;BME280;23691;52.486;4.650;2023-05-24T09:51:28;102546.84;;;19.08;47.96
37852;BME280;23691;52.486;4.650;2023-05-24T09:54:00;102539.16;;;19.12;47.76
37852;BME280;23691;52.486;4.650;2023-05-24T09:56:26;102544.97;;;19.08;47.27
37852;BME280;23691;52.486;4.650;2023-05-24T09:58:51;102538.50;;;19.09;47.33
37852;BME280;23691;52.486;4.650;2023-05-24T10:01:21;102536.59;;;19.18;47.16
37852;BME280;23691;52.486;4.650;2023-05-24T10:03:57;102538.31;;;19.34;46.91
37852;BME280;23691;52.486;4.650;2023-05-24T10:06:23;102537.00;;;19.30;46.35
37852;BME280;23691;52.486;4.650;2023-05-24T10:08:50;102536.63;;;19.33;46.48
37852;BME280;23691;52.486;4.650;2023-05-24T10:11:18;102536.63;;;19.33;46.54
37852;BME280;23691;52.486;4.650;2023-05-24T10:13:46;102552.25;;;19.31;46.66
37852;BME280;23691;52.486;4.650;2023-05-24T10:16:15;102542.53;;;19.37;46.62
37852;BME280;23691;52.486;4.650;2023-05-24T10:18:41;102545.25;;;19.37;46.67
37852;BME280;23691;52.486;4.650;2023-05-24T10:21:06;102542.50;;;19.45;46.23
37852;BME280;23691;52.486;4.650;2023-05-24T10:23:35;102546.75;;;19.62;45.61
37852;BME280;23691;52.486;4.650;2023-05-24T10:26:04;102550.84;;;19.58;45.71
37852;BME280;23691;52.486;4.650;2023-05-24T10:28:33;102548.91;;;19.67;45.67
37852;BME280;23691;52.486;4.650;2023-05-24T10:31:14;102551.22;;;19.78;45.37
37852;BME280;23691;52.486;4.650;2023-05-24T10:33:42;102552.63;;;19.74;45.29
37852;BME280;23691;52.486;4.650;2023-05-24T10:36:09;102561.50;;;19.68;45.26
37852;BME280;23691;52.486;4.650;2023-05-24T10:38:39;102562.22;;;19.62;45.28
37852;BME280;23691;52.486;4.650;2023-05-24T10:41:05;102559.91;;;19.73;45.44
37852;BME280;23691;52.486;4.650;2023-05-24T10:43:33;102553.78;;;19.94;45.24
37852;BME280;23691;52.486;4.650;2023-05-24T10:46:01;102569.44;;;20.07;44.91
37852;BME280;23691;52.486;4.650;2023-05-24T10:50:54;102565.38;;;19.88;45.04
37852;BME280;23691;52.486;4.650;2023-05-24T10:53:22;102564.63;;;19.94;44.76
37852;BME280;23691;52.486;4.650;2023-05-24T10:55:56;102572.97;;;19.93;44.65
37852;BME280;23691;52.486;4.650;2023-05-24T10:58:27;102560.97;;;19.87;44.67
37852;BME280;23691;52.486;4.650;2023-05-24T11:00:55;102557.63;;;20.00;44.67
37852;BME280;23691;52.486;4.650;2023-05-24T11:03:22;102558.19;;;20.10;44.70
37852;BME280;23691;52.486;4.650;2023-05-24T11:08:20;102556.22;;;20.19;44.27
37852;BME280;23691;52.486;4.650;2023-05-24T11:10:46;102554.47;;;20.26;44.03
37852;BME280;23691;52.486;4.650;2023-05-24T11:13:12;102550.97;;;20.32;44.22
37852;BME280;23691;52.486;4.650;2023-05-24T11:15:37;102558.38;;;20.38;44.07
37852;BME280;23691;52.486;4.650;2023-05-24T11:20:44;102557.41;;;20.91;42.68
37852;BME280;23691;52.486;4.650;2023-05-24T11:23:13;102558.50;;;20.96;42.91
37852;BME280;23691;52.486;4.650;2023-05-24T11:25:40;102546.69;;;20.68;42.49
37852;BME280;23691;52.486;4.650;2023-05-24T11:28:07;102547.78;;;20.44;43.01
37852;BME280;23691;52.486;4.650;2023-05-24T11:30:47;102547.88;;;20.50;43.22
37852;BME280;23691;52.486;4.650;2023-05-24T11:33:19;102542.75;;;20.55;42.93
37852;BME280;23691;52.486;4.650;2023-05-24T11:35:50;102544.91;;;20.96;42.55
37852;BME280;23691;52.486;4.650;2023-05-24T11:38:17;102548.09;;;21.21;42.26
37852;BME280;23691;52.486;4.650;2023-05-24T11:40:44;102542.84;;;21.20;42.15
37852;BME280;23691;52.486;4.650;2023-05-24T11:43:17;102538.88;;;21.01;42.42
37852;BME280;23691;52.486;4.650;2023-05-24T11:45:50;102534.88;;;20.97;42.31
37852;BME280;23691;52.486;4.650;2023-05-24T11:48:17;102537.59;;;21.18;42.18
37852;BME280;23691;52.486;4.650;2023-05-24T11:50:44;102532.28;;;21.32;42.03
37852;BME280;23691;52.486;4.650;2023-05-24T11:53:14;102537.28;;;21.28;41.90
37852;BME280;23691;52.486;4.650;2023-05-24T11:55:40;102528.03;;;21.44;42.20
37852;BME280;23691;52.486;4.650;2023-05-24T12:00:53;102533.78;;;21.13;42.28
37852;BME280;23691;52.486;4.650;2023-05-24T12:03:19;102530.06;;;20.99;42.37
37852;BME280;23691;52.486;4.650;2023-05-24T12:05:45;102531.28;;;20.96;42.80
37852;BME280;23691;52.486;4.650;2023-05-24T12:08:12;102545.38;;;21.00;42.73
37852;BME280;23691;52.486;4.650;2023-05-24T12:10:40;102537.84;;;21.23;42.55
37852;BME280;23691;52.486;4.650;2023-05-24T12:13:18;102534.75;;;21.48;42.69
37852;BME280;23691;52.486;4.650;2023-05-24T12:15:44;102532.19;;;21.40;42.40
37852;BME280;23691;52.486;4.650;2023-05-24T12:18:19;102544.19;;;21.09;43.24
37852;BME280;23691;52.486;4.650;2023-05-24T12:20:47;102535.09;;;20.80;43.62
37852;BME280;23691;52.486;4.650;2023-05-24T12:23:13;102536.72;;;20.75;43.65
37852;BME280;23691;52.486;4.650;2023-05-24T12:25:39;102539.22;;;20.76;43.40
37852;BME280;23691;52.486;4.650;2023-05-24T12:28:04;102532.34;;;20.95;43.25
37852;BME280;23691;52.486;4.650;2023-05-24T12:30:32;102541.00;;;20.84;43.53
37852;BME280;23691;52.486;4.650;2023-05-24T12:32:57;102544.53;;;20.63;43.80
37852;BME280;23691;52.486;4.650;2023-05-24T12:35:23;102554.44;;;20.41;44.05
37852;BME280;23691;52.486;4.650;2023-05-24T12:37:49;102547.13;;;20.42;43.95
37852;BME280;23691;52.486;4.650;2023-05-24T12:40:15;102542.06;;;21.26;42.96
37852;BME280;23691;52.486;4.650;2023-05-24T12:42:55;102532.56;;;21.37;43.05
37852;BME280;23691;52.486;4.650;2023-05-24T12:45:25;102540.63;;;21.09;43.51
37852;BME280;23691;52.486;4.650;2023-05-24T12:47:52;102537.69;;;20.89;43.29
37852;BME280;23691;52.486;4.650;2023-05-24T12:50:22;102528.25;;;20.85;43.31
37852;BME280;23691;52.486;4.650;2023-05-24T12:52:48;102532.16;;;20.97;43.11
37852;BME280;23691;52.486;4.650;2023-05-24T12:55:18;102530.16;;;20.69;43.69
37852;BME280;23691;52.486;4.650;2023-05-24T12:57:44;102529.44;;;20.61;43.73
37852;BME280;23691;52.486;4.650;2023-05-24T13:00:17;102536.16;;;20.65;43.87
37852;BME280;23691;52.486;4.650;2023-05-24T13:02:43;102533.25;;;20.66;43.57
37852;BME280;23691;52.486;4.650;2023-05-24T13:05:08;102545.25;;;20.72;43.50
37852;BME280;23691;52.486;4.650;2023-05-24T13:07:34;102531.63;;;21.08;42.95
37852;BME280;23691;52.486;4.650;2023-05-24T13:10:00;102543.69;;;21.20;42.84